sensor_id;sensor_type;location;lat;lon;timestamp;pressure;altitude;pressure_sealevel;temperature;humidity
61436;BME280;47304;47.456;19.160;2023-01-26T00:01:12;101063.98;;;2.61;75.02
61436;BME280;47304;47.456;19.160;2023-01-26T00:03:40;101063.04;;;2.63;74.86
61436;BME280;47304;47.456;19.160;2023-01-26T00:06:08;101058.98;;;2.66;74.82
61436;BME280;47304;47.456;19.160;2023-01-26T00:08:39;101054.28;;;2.65;74.66
61436;BME280;47304;47.456;19.160;2023-01-26T00:11:08;101054.08;;;2.64;74.75
61436;BME280;47304;47.456;19.160;2023-01-26T00:13:36;101050.45;;;2.65;74.87
61436;BME280;47304;47.456;19.160;2023-01-26T00:16:06;101047.23;;;2.66;74.87
61436;BME280;47304;47.456;19.160;2023-01-26T00:18:36;101052.14;;;2.68;74.76
61436;BME280;47304;47.456;19.160;2023-01-26T00:21:03;101046.54;;;2.66;74.76
61436;BME280;47304;47.456;19.160;2023-01-26T00:23:31;101043.40;;;2.66;74.50
61436;BME280;47304;47.456;19.160;2023-01-26T00:25:59;101042.80;;;2.63;74.37
61436;BME280;47304;47.456;19.160;2023-01-26T00:28:27;101042.00;;;2.61;74.68
61436;BME280;47304;47.456;19.160;2023-01-26T00:31:04;101041.17;;;2.62;74.67
61436;BME280;47304;47.456;19.160;2023-01-26T00:33:31;101039.33;;;2.59;74.68
61436;BME280;47304;47.456;19.160;2023-01-26T00:35:58;101036.17;;;2.58;74.86
61436;BME280;47304;47.456;19.160;2023-01-26T00:38:25;101040.89;;;2.59;74.90
61436;BME280;47304;47.456;19.160;2023-01-26T00:40:51;101040.92;;;2.60;74.73
61436;BME280;47304;47.456;19.160;2023-01-26T00:43:18;101037.64;;;2.60;74.40
61436;BME280;47304;47.456;19.160;2023-01-26T00:45:44;101038.10;;;2.59;74.36
61436;BME280;47304;47.456;19.160;2023-01-26T00:48:11;101038.73;;;2.58;74.57
61436;BME280;47304;47.456;19.160;2023-01-26T00:50:37;101035.91;;;2.56;74.50
61436;BME280;47304;47.456;19.160;2023-01-26T00:53:04;101027.17;;;2.58;74.41
61436;BME280;47304;47.456;19.160;2023-01-26T00:55:30;101030.90;;;2.57;74.33
61436;BME280;47304;47.456;19.160;2023-01-26T00:58:00;101027.38;;;2.55;74.46
61436;BME280;47304;47.456;19.160;2023-01-26T01:00:27;101025.05;;;2.54;74.53
61436;BME280;47304;47.456;19.160;2023-01-26T01:02:55;101022.07;;;2.52;74.62
61436;BME280;47304;47.456;19.160;2023-01-26T01:05:22;101020.55;;;2.53;74.67
61436;BME280;47304;47.456;19.160;2023-01-26T01:07:49;101027.73;;;2.55;74.66
61436;BME280;47304;47.456;19.160;2023-01-26T01:10:16;101024.53;;;2.57;74.74
61436;BME280;47304;47.456;19.160;2023-01-26T01:12:43;101027.66;;;2.57;74.46
61436;BME280;47304;47.456;19.160;2023-01-26T01:15:10;101023.28;;;2.56;74.45
61436;BME280;47304;47.456;19.160;2023-01-26T01:17:37;101017.58;;;2.56;74.34
61436;BME280;47304;47.456;19.160;2023-01-26T01:20:05;101016.89;;;2.57;74.12
61436;BME280;47304;47.456;19.160;2023-01-26T01:22:33;101016.64;;;2.55;74.12
61436;BME280;47304;47.456;19.160;2023-01-26T01:25:00;101013.98;;;2.53;74.10
61436;BME280;47304;47.456;19.160;2023-01-26T01:27:27;101008.77;;;2.49;74.03
61436;BME280;47304;47.456;19.160;2023-01-26T01:29:53;101009.23;;;2.47;74.23
61436;BME280;47304;47.456;19.160;2023-01-26T01:32:20;101011.00;;;2.48;74.24
61436;BME280;47304;47.456;19.160;2023-01-26T01:34:47;101005.80;;;2.48;74.22
61436;BME280;47304;47.456;19.160;2023-01-26T01:37:15;101004.80;;;2.49;74.24
61436;BME280;47304;47.456;19.160;2023-01-26T01:39:42;101004.48;;;2.49;74.27
61436;BME280;47304;47.456;19.160;2023-01-26T01:42:08;101001.19;;;2.49;74.17
61436;BME280;47304;47.456;19.160;2023-01-26T01:44:37;101001.73;;;2.49;74.19
61436;BME280;47304;47.456;19.160;2023-01-26T01:47:23;100998.82;;;2.50;73.88
61436;BME280;47304;47.456;19.160;2023-01-26T01:49:51;100996.70;;;2.49;73.58
61436;BME280;47304;47.456;19.160;2023-01-26T01:52:24;100998.13;;;2.46;73.30
61436;BME280;47304;47.456;19.160;2023-01-26T01:55:02;100996.28;;;2.43;73.38
61436;BME280;47304;47.456;19.160;2023-01-26T01:57:36;100993.94;;;2.41;73.53
61436;BME280;47304;47.456;19.160;2023-01-26T02:00:09;100989.77;;;2.41;73.31
61436;BME280;47304;47.456;19.160;2023-01-26T02:02:37;100980.34;;;2.39;73.07
61436;BME280;47304;47.456;19.160;2023-01-26T02:05:20;100979.75;;;2.37;73.12
61436;BME280;47304;47.456;19.160;2023-01-26T02:07:49;100978.98;;;2.35;73.44
61436;BME280;47304;47.456;19.160;2023-01-26T02:10:18;100967.50;;;2.33;73.53
61436;BME280;47304;47.456;19.160;2023-01-26T02:12:46;100970.32;;;2.35;73.75
61436;BME280;47304;47.456;19.160;2023-01-26T02:15:14;100968.36;;;2.38;73.78
61436;BME280;47304;47.456;19.160;2023-01-26T02:17:40;100967.58;;;2.40;73.71
61436;BME280;47304;47.456;19.160;2023-01-26T02:26:15;100954.79;;;2.40;73.45
61436;BME280;47304;47.456;19.160;2023-01-26T02:28:45;100957.61;;;2.37;73.51
61436;BME280;47304;47.456;19.160;2023-01-26T02:31:12;100952.38;;;2.36;73.71
61436;BME280;47304;47.456;19.160;2023-01-26T02:33:39;100946.82;;;2.35;73.72
61436;BME280;47304;47.456;19.160;2023-01-26T02:36:09;100942.44;;;2.33;73.51
61436;BME280;47304;47.456;19.160;2023-01-26T02:38:39;100945.86;;;2.33;73.63
61436;BME280;47304;47.456;19.160;2023-01-26T02:41:08;100939.98;;;2.33;73.68
61436;BME280;47304;47.456;19.160;2023-01-26T02:43:36;100938.94;;;2.33;73.84
61436;BME280;47304;47.456;19.160;2023-01-26T02:46:03;100933.73;;;2.32;73.92
61436;BME280;47304;47.456;19.160;2023-01-26T02:48:30;100927.83;;;2.32;73.83
61436;BME280;47304;47.456;19.160;2023-01-26T02:50:56;100924.27;;;2.29;73.81
61436;BME280;47304;47.456;19.160;2023-01-26T02:53:23;100918.56;;;2.29;73.90
61436;BME280;47304;47.456;19.160;2023-01-26T02:55:49;100915.92;;;2.28;73.85
61436;BME280;47304;47.456;19.160;2023-01-26T02:58:16;100912.05;;;2.26;73.76
61436;BME280;47304;47.456;19.160;2023-01-26T03:00:43;100913.20;;;2.25;73.88
61436;BME280;47304;47.456;19.160;2023-01-26T03:03:22;100908.86;;;2.25;74.11
61436;BME280;47304;47.456;19.160;2023-01-26T03:05:50;100905.41;;;2.25;74.19
61436;BME280;47304;47.456;19.160;2023-01-26T03:08:17;100898.12;;;2.25;74.34
61436;BME280;47304;47.456;19.160;2023-01-26T03:10:43;100900.02;;;2.24;74.16
61436;BME280;47304;47.456;19.160;2023-01-26T03:13:10;100899.33;;;2.24;74.22
61436;BME280;47304;47.456;19.160;2023-01-26T03:15:36;100895.39;;;2.25;74.08
61436;BME280;47304;47.456;19.160;2023-01-26T03:18:08;100897.93;;;2.24;74.20
61436;BME280;47304;47.456;19.160;2023-01-26T03:20:37;100894.77;;;2.23;74.26
61436;BME280;47304;47.456;19.160;2023-01-26T03:23:07;100887.23;;;2.20;74.38
61436;BME280;47304;47.456;19.160;2023-01-26T03:25:35;100879.71;;;2.18;74.44
61436;BME280;47304;47.456;19.160;2023-01-26T03:28:01;100881.95;;;2.17;74.23
61436;BME280;47304;47.456;19.160;2023-01-26T03:30:28;100876.32;;;2.15;74.07
61436;BME280;47304;47.456;19.160;2023-01-26T03:32:54;100871.77;;;2.14;74.11
61436;BME280;47304;47.456;19.160;2023-01-26T03:35:21;100869.67;;;2.13;74.39
61436;BME280;47304;47.456;19.160;2023-01-26T03:37:47;100873.17;;;2.14;74.45
61436;BME280;47304;47.456;19.160;2023-01-26T03:40:14;100866.86;;;2.13;74.31
61436;BME280;47304;47.456;19.160;2023-01-26T03:42:40;100868.38;;;2.11;74.30
61436;BME280;47304;47.456;19.160;2023-01-26T03:45:07;100867.17;;;2.11;74.44
61436;BME280;47304;47.456;19.160;2023-01-26T03:47:35;100864.24;;;2.12;74.53
61436;BME280;47304;47.456;19.160;2023-01-26T03:50:02;100862.67;;;2.11;74.54
61436;BME280;47304;47.456;19.160;2023-01-26T03:52:31;100863.14;;;2.11;74.48
61436;BME280;47304;47.456;19.160;2023-01-26T03:54:57;100858.23;;;2.09;74.75
61436;BME280;47304;47.456;19.160;2023-01-26T03:57:24;100853.50;;;2.07;74.51
61436;BME280;47304;47.456;19.160;2023-01-26T03:59:50;100848.77;;;2.06;74.54
61436;BME280;47304;47.456;19.160;2023-01-26T04:02:17;100849.99;;;2.01;74.43
61436;BME280;47304;47.456;19.160;2023-01-26T04:04:43;100851.30;;;1.99;74.49
61436;BME280;47304;47.456;19.160;2023-01-26T04:07:10;100846.40;;;1.98;74.46
61436;BME280;47304;47.456;19.160;2023-01-26T04:09:37;100843.11;;;1.98;74.37
61436;BME280;47304;47.456;19.160;2023-01-26T04:12:04;100842.05;;;1.97;74.24
61436;BME280;47304;47.456;19.160;2023-01-26T04:14:31;100841.05;;;1.98;74.37
61436;BME280;47304;47.456;19.160;2023-01-26T04:17:15;100841.98;;;2.00;74.24
61436;BME280;47304;47.456;19.160;2023-01-26T04:19:41;100837.02;;;2.01;74.14
61436;BME280;47304;47.456;19.160;2023-01-26T04:22:08;100837.95;;;2.03;74.18
61436;BME280;47304;47.456;19.160;2023-01-26T04:24:34;100831.77;;;2.04;74.06
61436;BME280;47304;47.456;19.160;2023-01-26T04:27:01;100830.63;;;2.06;74.07
61436;BME280;47304;47.456;19.160;2023-01-26T04:29:27;100826.19;;;2.07;73.95
61436;BME280;47304;47.456;19.160;2023-01-26T04:31:54;100828.66;;;2.08;73.81
61436;BME280;47304;47.456;19.160;2023-01-26T04:34:20;100829.82;;;2.11;73.76
61436;BME280;47304;47.456;19.160;2023-01-26T04:36:47;100833.54;;;2.13;73.73
61436;BME280;47304;47.456;19.160;2023-01-26T04:39:13;100828.42;;;2.15;73.48
61436;BME280;47304;47.456;19.160;2023-01-26T04:41:40;100831.80;;;2.17;73.54
61436;BME280;47304;47.456;19.160;2023-01-26T04:44:07;100832.53;;;2.18;73.61
61436;BME280;47304;47.456;19.160;2023-01-26T04:46:34;100827.05;;;2.20;73.56
61436;BME280;47304;47.456;19.160;2023-01-26T04:49:00;100825.64;;;2.19;73.23
61436;BME280;47304;47.456;19.160;2023-01-26T04:51:27;100826.94;;;2.17;73.26
61436;BME280;47304;47.456;19.160;2023-01-26T04:53:54;100822.47;;;2.13;73.04
61436;BME280;47304;47.456;19.160;2023-01-26T04:56:29;100820.84;;;2.11;73.11
61436;BME280;47304;47.456;19.160;2023-01-26T04:59:03;100820.23;;;2.09;72.93
61436;BME280;47304;47.456;19.160;2023-01-26T05:01:30;100819.53;;;2.09;72.84
61436;BME280;47304;47.456;19.160;2023-01-26T05:04:01;100823.27;;;2.07;72.63
61436;BME280;47304;47.456;19.160;2023-01-26T05:06:28;100821.16;;;2.07;72.68
61436;BME280;47304;47.456;19.160;2023-01-26T05:08:55;100819.40;;;2.06;72.78
61436;BME280;47304;47.456;19.160;2023-01-26T05:11:22;100815.48;;;2.07;72.97
61436;BME280;47304;47.456;19.160;2023-01-26T05:13:49;100819.30;;;2.08;72.79
61436;BME280;47304;47.456;19.160;2023-01-26T05:16:16;100821.17;;;2.07;72.82
61436;BME280;47304;47.456;19.160;2023-01-26T05:18:43;100819.59;;;2.06;72.63
61436;BME280;47304;47.456;19.160;2023-01-26T05:21:09;100818.97;;;2.03;72.60
61436;BME280;47304;47.456;19.160;2023-01-26T05:23:36;100820.33;;;2.03;72.58
61436;BME280;47304;47.456;19.160;2023-01-26T05:26:03;100820.73;;;2.00;72.66
61436;BME280;47304;47.456;19.160;2023-01-26T05:28:30;100817.93;;;1.99;72.88
61436;BME280;47304;47.456;19.160;2023-01-26T05:30:56;100819.45;;;1.98;72.72
61436;BME280;47304;47.456;19.160;2023-01-26T05:33:23;100820.60;;;1.97;72.68
61436;BME280;47304;47.456;19.160;2023-01-26T05:35:51;100818.73;;;1.94;72.79
61436;BME280;47304;47.456;19.160;2023-01-26T05:38:18;100819.48;;;1.95;72.79
61436;BME280;47304;47.456;19.160;2023-01-26T05:40:44;100820.86;;;1.95;73.00
61436;BME280;47304;47.456;19.160;2023-01-26T05:43:11;100823.64;;;1.96;72.81
61436;BME280;47304;47.456;19.160;2023-01-26T05:45:39;100826.50;;;1.97;72.98
61436;BME280;47304;47.456;19.160;2023-01-26T05:48:05;100824.05;;;1.97;72.90
61436;BME280;47304;47.456;19.160;2023-01-26T05:50:32;100827.30;;;1.96;72.79
61436;BME280;47304;47.456;19.160;2023-01-26T05:52:59;100828.84;;;1.95;72.68
61436;BME280;47304;47.456;19.160;2023-01-26T05:55:26;100827.48;;;1.92;72.77
61436;BME280;47304;47.456;19.160;2023-01-26T05:57:52;100828.23;;;1.89;72.81
61436;BME280;47304;47.456;19.160;2023-01-26T06:00:19;100828.99;;;1.87;72.77
61436;BME280;47304;47.456;19.160;2023-01-26T06:02:46;100830.02;;;1.86;72.90
61436;BME280;47304;47.456;19.160;2023-01-26T06:05:14;100832.80;;;1.87;72.75
61436;BME280;47304;47.456;19.160;2023-01-26T06:07:40;100829.36;;;1.87;72.66
61436;BME280;47304;47.456;19.160;2023-01-26T06:10:07;100827.33;;;1.89;72.71
61436;BME280;47304;47.456;19.160;2023-01-26T06:12:35;100827.52;;;1.89;72.52
61436;BME280;47304;47.456;19.160;2023-01-26T06:15:01;100825.27;;;1.89;72.51
61436;BME280;47304;47.456;19.160;2023-01-26T06:17:28;100823.59;;;1.90;72.50
61436;BME280;47304;47.456;19.160;2023-01-26T06:19:54;100825.89;;;1.91;72.40
61436;BME280;47304;47.456;19.160;2023-01-26T06:22:21;100829.83;;;1.91;72.46
61436;BME280;47304;47.456;19.160;2023-01-26T06:24:47;100831.80;;;1.92;72.47
61436;BME280;47304;47.456;19.160;2023-01-26T06:27:15;100830.30;;;1.94;72.07
61436;BME280;47304;47.456;19.160;2023-01-26T06:29:43;100827.05;;;1.94;72.05
61436;BME280;47304;47.456;19.160;2023-01-26T06:32:11;100825.52;;;1.95;71.90
61436;BME280;47304;47.456;19.160;2023-01-26T06:34:38;100825.21;;;1.96;72.07
61436;BME280;47304;47.456;19.160;2023-01-26T06:37:04;100819.75;;;1.97;72.04
61436;BME280;47304;47.456;19.160;2023-01-26T06:39:31;100820.10;;;1.97;72.00
61436;BME280;47304;47.456;19.160;2023-01-26T06:41:57;100822.31;;;1.96;71.92
61436;BME280;47304;47.456;19.160;2023-01-26T06:44:24;100816.77;;;1.96;72.02
61436;BME280;47304;47.456;19.160;2023-01-26T06:46:50;100816.33;;;1.98;72.14
61436;BME280;47304;47.456;19.160;2023-01-26T06:49:17;100812.93;;;1.99;71.75
61436;BME280;47304;47.456;19.160;2023-01-26T06:54:18;100813.48;;;2.05;71.74
61436;BME280;47304;47.456;19.160;2023-01-26T06:56:45;100814.92;;;2.06;71.52
61436;BME280;47304;47.456;19.160;2023-01-26T06:59:12;100813.42;;;2.07;71.49
61436;BME280;47304;47.456;19.160;2023-01-26T07:01:40;100811.91;;;2.08;71.41
61436;BME280;47304;47.456;19.160;2023-01-26T07:04:08;100811.98;;;2.10;71.35
61436;BME280;47304;47.456;19.160;2023-01-26T07:06:35;100812.97;;;2.13;71.37
61436;BME280;47304;47.456;19.160;2023-01-26T07:09:02;100811.45;;;2.14;71.39
61436;BME280;47304;47.456;19.160;2023-01-26T07:11:29;100809.55;;;2.14;71.02
61436;BME280;47304;47.456;19.160;2023-01-26T07:13:55;100807.95;;;2.13;70.98
61436;BME280;47304;47.456;19.160;2023-01-26T07:16:23;100811.44;;;2.14;70.93
61436;BME280;47304;47.456;19.160;2023-01-26T07:18:51;100809.81;;;2.16;70.77
61436;BME280;47304;47.456;19.160;2023-01-26T07:21:18;100803.83;;;2.18;70.86
61436;BME280;47304;47.456;19.160;2023-01-26T07:23:45;100800.45;;;2.20;70.70
61436;BME280;47304;47.456;19.160;2023-01-26T07:26:12;100798.13;;;2.23;70.70
61436;BME280;47304;47.456;19.160;2023-01-26T07:28:39;100798.08;;;2.26;70.75
61436;BME280;47304;47.456;19.160;2023-01-26T07:31:07;100799.73;;;2.28;70.77
61436;BME280;47304;47.456;19.160;2023-01-26T07:33:34;100794.05;;;2.28;70.87
61436;BME280;47304;47.456;19.160;2023-01-26T07:36:01;100790.08;;;2.29;70.62
61436;BME280;47304;47.456;19.160;2023-01-26T07:38:28;100789.17;;;2.28;70.51
61436;BME280;47304;47.456;19.160;2023-01-26T07:40:55;100790.88;;;2.27;70.40
61436;BME280;47304;47.456;19.160;2023-01-26T07:43:22;100788.11;;;2.27;70.12
61436;BME280;47304;47.456;19.160;2023-01-26T07:45:50;100789.71;;;2.28;70.07
61436;BME280;47304;47.456;19.160;2023-01-26T07:48:22;100796.00;;;2.30;69.99
61436;BME280;47304;47.456;19.160;2023-01-26T07:50:49;100793.77;;;2.30;69.89
61436;BME280;47304;47.456;19.160;2023-01-26T07:53:17;100794.06;;;2.29;69.87
61436;BME280;47304;47.456;19.160;2023-01-26T07:55:45;100790.94;;;2.29;69.94
61436;BME280;47304;47.456;19.160;2023-01-26T07:58:12;100792.67;;;2.29;70.04
61436;BME280;47304;47.456;19.160;2023-01-26T08:00:39;100795.26;;;2.29;69.87
61436;BME280;47304;47.456;19.160;2023-01-26T08:03:06;100791.54;;;2.26;69.87
61436;BME280;47304;47.456;19.160;2023-01-26T08:05:32;100791.49;;;2.25;69.75
61436;BME280;47304;47.456;19.160;2023-01-26T08:07:59;100795.72;;;2.27;69.90
61436;BME280;47304;47.456;19.160;2023-01-26T08:10:27;100793.16;;;2.28;69.90
61436;BME280;47304;47.456;19.160;2023-01-26T08:12:53;100794.06;;;2.29;69.74
61436;BME280;47304;47.456;19.160;2023-01-26T08:15:20;100792.05;;;2.30;69.82
61436;BME280;47304;47.456;19.160;2023-01-26T08:17:46;100790.91;;;2.32;69.78
61436;BME280;47304;47.456;19.160;2023-01-26T08:20:13;100788.61;;;2.36;69.78
61436;BME280;47304;47.456;19.160;2023-01-26T08:22:40;100788.55;;;2.38;69.79
61436;BME280;47304;47.456;19.160;2023-01-26T08:25:07;100786.34;;;2.40;69.41
61436;BME280;47304;47.456;19.160;2023-01-26T08:27:33;100788.95;;;2.39;69.38
61436;BME280;47304;47.456;19.160;2023-01-26T08:30:00;100789.75;;;2.38;69.23
61436;BME280;47304;47.456;19.160;2023-01-26T08:32:29;100790.83;;;2.35;69.20
61436;BME280;47304;47.456;19.160;2023-01-26T08:34:55;100788.81;;;2.36;69.34
61436;BME280;47304;47.456;19.160;2023-01-26T08:37:22;100787.88;;;2.39;69.52
61436;BME280;47304;47.456;19.160;2023-01-26T08:39:48;100787.25;;;2.40;69.29
61436;BME280;47304;47.456;19.160;2023-01-26T08:42:15;100787.27;;;2.41;69.45
61436;BME280;47304;47.456;19.160;2023-01-26T08:44:42;100784.30;;;2.40;69.56
61436;BME280;47304;47.456;19.160;2023-01-26T08:47:08;100783.45;;;2.40;69.24
61436;BME280;47304;47.456;19.160;2023-01-26T08:49:35;100787.98;;;2.41;69.31
61436;BME280;47304;47.456;19.160;2023-01-26T08:52:03;100787.92;;;2.44;69.25
61436;BME280;47304;47.456;19.160;2023-01-26T08:54:30;100785.71;;;2.45;68.92
61436;BME280;47304;47.456;19.160;2023-01-26T08:56:56;100785.71;;;2.46;69.10
61436;BME280;47304;47.456;19.160;2023-01-26T08:59:23;100785.17;;;2.44;69.06
61436;BME280;47304;47.456;19.160;2023-01-26T09:01:49;100783.18;;;2.43;69.42
61436;BME280;47304;47.456;19.160;2023-01-26T09:04:16;100788.78;;;2.44;69.31
61436;BME280;47304;47.456;19.160;2023-01-26T09:06:43;100788.11;;;2.45;69.40
61436;BME280;47304;47.456;19.160;2023-01-26T09:09:09;100789.52;;;2.45;69.25
61436;BME280;47304;47.456;19.160;2023-01-26T09:11:36;100787.27;;;2.45;69.50
61436;BME280;47304;47.456;19.160;2023-01-26T09:14:02;100790.04;;;2.45;69.43
61436;BME280;47304;47.456;19.160;2023-01-26T09:16:29;100785.63;;;2.43;69.32
61436;BME280;47304;47.456;19.160;2023-01-26T09:18:56;100787.30;;;2.41;69.28
61436;BME280;47304;47.456;19.160;2023-01-26T09:21:22;100788.78;;;2.40;69.43
61436;BME280;47304;47.456;19.160;2023-01-26T09:23:49;100786.39;;;2.41;69.48
61436;BME280;47304;47.456;19.160;2023-01-26T09:26:16;100785.32;;;2.40;69.50
61436;BME280;47304;47.456;19.160;2023-01-26T09:28:42;100786.92;;;2.37;69.57
61436;BME280;47304;47.456;19.160;2023-01-26T09:31:10;100784.42;;;2.34;69.68
61436;BME280;47304;47.456;19.160;2023-01-26T09:33:36;100784.61;;;2.35;69.77
61436;BME280;47304;47.456;19.160;2023-01-26T09:36:05;100783.74;;;2.35;70.29
61436;BME280;47304;47.456;19.160;2023-01-26T09:38:32;100779.34;;;2.37;69.99
61436;BME280;47304;47.456;19.160;2023-01-26T09:43:49;100774.56;;;2.34;70.31
61436;BME280;47304;47.456;19.160;2023-01-26T09:46:21;100774.20;;;2.34;70.42
61436;BME280;47304;47.456;19.160;2023-01-26T09:49:04;100774.48;;;2.37;70.25
61436;BME280;47304;47.456;19.160;2023-01-26T09:51:41;100769.94;;;2.40;70.47
61436;BME280;47304;47.456;19.160;2023-01-26T09:54:23;100767.54;;;2.41;70.23
61436;BME280;47304;47.456;19.160;2023-01-26T09:56:53;100765.05;;;2.39;70.40
61436;BME280;47304;47.456;19.160;2023-01-26T09:59:34;100762.36;;;2.40;70.48
61436;BME280;47304;47.456;19.160;2023-01-26T10:02:29;100754.31;;;2.39;70.46
61436;BME280;47304;47.456;19.160;2023-01-26T10:05:03;100750.17;;;2.39;70.67
61436;BME280;47304;47.456;19.160;2023-01-26T10:07:33;100746.41;;;2.40;70.60
61436;BME280;47304;47.456;19.160;2023-01-26T10:09:59;100744.59;;;2.38;70.35
61436;BME280;47304;47.456;19.160;2023-01-26T10:12:31;100739.31;;;2.34;70.42
61436;BME280;47304;47.456;19.160;2023-01-26T10:17:39;100732.88;;;2.34;70.36
61436;BME280;47304;47.456;19.160;2023-01-26T10:23:00;100724.64;;;2.31;70.65
61436;BME280;47304;47.456;19.160;2023-01-26T10:25:29;100719.57;;;2.29;70.75
61436;BME280;47304;47.456;19.160;2023-01-26T10:28:01;100720.14;;;2.31;70.64
61436;BME280;47304;47.456;19.160;2023-01-26T10:30:27;100717.73;;;2.31;70.53
61436;BME280;47304;47.456;19.160;2023-01-26T10:32:54;100716.10;;;2.34;70.69
61436;BME280;47304;47.456;19.160;2023-01-26T10:35:23;100712.84;;;2.39;70.74
61436;BME280;47304;47.456;19.160;2023-01-26T10:37:50;100708.02;;;2.44;70.97
61436;BME280;47304;47.456;19.160;2023-01-26T10:40:18;100700.86;;;2.51;70.84
61436;BME280;47304;47.456;19.160;2023-01-26T10:42:54;100701.54;;;2.56;70.49
61436;BME280;47304;47.456;19.160;2023-01-26T10:50:41;100697.07;;;2.71;70.13
61436;BME280;47304;47.456;19.160;2023-01-26T10:53:34;100693.36;;;2.78;70.31
61436;BME280;47304;47.456;19.160;2023-01-26T10:56:19;100689.34;;;2.87;70.35
61436;BME280;47304;47.456;19.160;2023-01-26T10:58:51;100689.33;;;2.91;70.02
61436;BME280;47304;47.456;19.160;2023-01-26T11:01:20;100684.91;;;2.93;69.96
61436;BME280;47304;47.456;19.160;2023-01-26T11:04:10;100682.64;;;2.98;69.98
61436;BME280;47304;47.456;19.160;2023-01-26T11:06:38;100678.98;;;3.02;69.66
61436;BME280;47304;47.456;19.160;2023-01-26T11:11:36;100673.14;;;3.04;69.66
61436;BME280;47304;47.456;19.160;2023-01-26T11:14:10;100665.35;;;3.04;69.68
61436;BME280;47304;47.456;19.160;2023-01-26T11:16:37;100667.70;;;3.02;69.80
61436;BME280;47304;47.456;19.160;2023-01-26T11:21:55;100657.11;;;3.05;69.24
61436;BME280;47304;47.456;19.160;2023-01-26T11:24:40;100656.48;;;3.07;69.35
61436;BME280;47304;47.456;19.160;2023-01-26T11:35:36;100644.44;;;3.15;68.85
61436;BME280;47304;47.456;19.160;2023-01-26T11:38:15;100640.38;;;3.18;68.59
61436;BME280;47304;47.456;19.160;2023-01-26T11:41:35;100638.31;;;3.23;68.74
61436;BME280;47304;47.456;19.160;2023-01-26T11:52:22;100618.36;;;3.33;68.55
61436;BME280;47304;47.456;19.160;2023-01-26T11:57:38;100609.96;;;3.35;68.52
61436;BME280;47304;47.456;19.160;2023-01-26T12:00:16;100600.98;;;3.35;68.23
61436;BME280;47304;47.456;19.160;2023-01-26T12:03:04;100599.16;;;3.33;68.09
61436;BME280;47304;47.456;19.160;2023-01-26T12:05:44;100592.31;;;3.30;68.12
61436;BME280;47304;47.456;19.160;2023-01-26T12:13:39;100587.44;;;3.19;68.03
61436;BME280;47304;47.456;19.160;2023-01-26T12:19:37;100577.35;;;3.18;68.11
61436;BME280;47304;47.456;19.160;2023-01-26T12:22:12;100577.07;;;3.14;68.33
61436;BME280;47304;47.456;19.160;2023-01-26T12:24:46;100576.03;;;3.14;68.40
61436;BME280;47304;47.456;19.160;2023-01-26T12:27:41;100573.15;;;3.16;68.09
61436;BME280;47304;47.456;19.160;2023-01-26T12:32:36;100575.44;;;3.12;68.37
61436;BME280;47304;47.456;19.160;2023-01-26T12:35:03;100569.38;;;3.12;68.38
61436;BME280;47304;47.456;19.160;2023-01-26T12:37:56;100566.46;;;3.13;68.52
61436;BME280;47304;47.456;19.160;2023-01-26T12:46:01;100558.69;;;3.08;68.10
61436;BME280;47304;47.456;19.160;2023-01-26T12:48:43;100557.42;;;3.06;68.45
61436;BME280;47304;47.456;19.160;2023-01-26T12:51:23;100553.40;;;3.05;68.74
61436;BME280;47304;47.456;19.160;2023-01-26T12:53:58;100555.85;;;3.05;68.95
61436;BME280;47304;47.456;19.160;2023-01-26T12:56:35;100552.14;;;3.04;68.77
61436;BME280;47304;47.456;19.160;2023-01-26T12:59:13;100555.73;;;3.03;68.96
61436;BME280;47304;47.456;19.160;2023-01-26T13:04:42;100553.75;;;3.00;68.93
61436;BME280;47304;47.456;19.160;2023-01-26T13:07:32;100548.21;;;2.94;68.90
61436;BME280;47304;47.456;19.160;2023-01-26T13:15:23;100545.11;;;2.84;69.58
61436;BME280;47304;47.456;19.160;2023-01-26T13:28:38;100541.00;;;2.80;70.46
61436;BME280;47304;47.456;19.160;2023-01-26T13:31:08;100538.92;;;2.80;70.62
61436;BME280;47304;47.456;19.160;2023-01-26T13:33:35;100537.52;;;2.80;70.63
61436;BME280;47304;47.456;19.160;2023-01-26T13:36:05;100538.58;;;2.80;70.62
61436;BME280;47304;47.456;19.160;2023-01-26T13:38:40;100543.44;;;2.81;70.61
61436;BME280;47304;47.456;19.160;2023-01-26T13:41:12;100544.43;;;2.80;70.60
61436;BME280;47304;47.456;19.160;2023-01-26T13:43:48;100542.95;;;2.77;70.61
61436;BME280;47304;47.456;19.160;2023-01-26T13:46:56;100547.71;;;2.74;70.54
61436;BME280;47304;47.456;19.160;2023-01-26T13:49:25;100545.40;;;2.72;70.46
61436;BME280;47304;47.456;19.160;2023-01-26T13:51:53;100542.41;;;2.71;70.71
61436;BME280;47304;47.456;19.160;2023-01-26T13:54:20;100546.00;;;2.70;70.74
61436;BME280;47304;47.456;19.160;2023-01-26T13:57:05;100544.04;;;2.69;70.84
61436;BME280;47304;47.456;19.160;2023-01-26T13:59:32;100545.13;;;2.70;70.96
61436;BME280;47304;47.456;19.160;2023-01-26T14:01:59;100539.58;;;2.69;71.19
61436;BME280;47304;47.456;19.160;2023-01-26T14:04:30;100534.34;;;2.68;71.35
61436;BME280;47304;47.456;19.160;2023-01-26T14:07:05;100540.77;;;2.69;71.53
61436;BME280;47304;47.456;19.160;2023-01-26T14:09:45;100541.27;;;2.68;71.53
61436;BME280;47304;47.456;19.160;2023-01-26T14:12:20;100542.40;;;2.66;71.88
61436;BME280;47304;47.456;19.160;2023-01-26T14:14:50;100544.50;;;2.56;71.95
61436;BME280;47304;47.456;19.160;2023-01-26T14:17:32;100540.10;;;2.49;72.25
61436;BME280;47304;47.456;19.160;2023-01-26T14:19:59;100543.02;;;2.44;72.48
61436;BME280;47304;47.456;19.160;2023-01-26T14:22:26;100542.66;;;2.38;72.68
61436;BME280;47304;47.456;19.160;2023-01-26T14:24:54;100541.98;;;2.34;72.80